sensor_id;sensor_type;location;lat;lon;timestamp;temperature;humidity
12957;DHT22;6543;48.836;10.092;2023-04-03T00:01:32;3.00;99.90
12957;DHT22;6543;48.836;10.092;2023-04-03T00:04:01;3.00;99.90
12957;DHT22;6543;48.836;10.092;2023-04-03T00:06:28;3.00;99.90
12957;DHT22;6543;48.836;10.092;2023-04-03T00:08:59;3.00;99.90
12957;DHT22;6543;48.836;10.092;2023-04-03T00:11:26;3.00;99.90
12957;DHT22;6543;48.836;10.092;2023-04-03T00:13:54;3.00;99.90
12957;DHT22;6543;48.836;10.092;2023-04-03T00:16:21;2.90;99.90
12957;DHT22;6543;48.836;10.092;2023-04-03T00:18:50;3.00;99.90
12957;DHT22;6543;48.836;10.092;2023-04-03T00:21:18;2.90;99.90
12957;DHT22;6543;48.836;10.092;2023-04-03T00:23:45;3.00;99.90
12957;DHT22;6543;48.836;10.092;2023-04-03T00:26:14;3.00;99.90
12957;DHT22;6543;48.836;10.092;2023-04-03T00:28:42;3.30;99.90
12957;DHT22;6543;48.836;10.092;2023-04-03T00:31:09;2.90;99.90
12957;DHT22;6543;48.836;10.092;2023-04-03T00:33:37;2.90;99.90
12957;DHT22;6543;48.836;10.092;2023-04-03T00:36:08;2.90;99.90
12957;DHT22;6543;48.836;10.092;2023-04-03T00:38:37;2.90;99.90
12957;DHT22;6543;48.836;10.092;2023-04-03T00:41:05;3.20;99.90
12957;DHT22;6543;48.836;10.092;2023-04-03T00:43:36;2.90;99.90
12957;DHT22;6543;48.836;10.092;2023-04-03T00:46:03;2.90;99.90
12957;DHT22;6543;48.836;10.092;2023-04-03T00:48:32;3.00;99.90
12957;DHT22;6543;48.836;10.092;2023-04-03T00:51:02;3.00;99.90
12957;DHT22;6543;48.836;10.092;2023-04-03T00:53:35;2.90;99.90
12957;DHT22;6543;48.836;10.092;2023-04-03T00:56:06;2.90;99.90
12957;DHT22;6543;48.836;10.092;2023-04-03T00:58:41;2.90;99.90
12957;DHT22;6543;48.836;10.092;2023-04-03T01:01:14;2.90;99.90
12957;DHT22;6543;48.836;10.092;2023-04-03T01:03:43;3.00;99.90
12957;DHT22;6543;48.836;10.092;2023-04-03T01:06:11;2.90;99.90
12957;DHT22;6543;48.836;10.092;2023-04-03T01:08:41;2.90;99.90
12957;DHT22;6543;48.836;10.092;2023-04-03T01:11:09;3.70;99.90
12957;DHT22;6543;48.836;10.092;2023-04-03T01:13:53;2.90;99.90
12957;DHT22;6543;48.836;10.092;2023-04-03T01:16:35;2.90;99.90
12957;DHT22;6543;48.836;10.092;2023-04-03T01:19:16;2.90;99.90
12957;DHT22;6543;48.836;10.092;2023-04-03T01:22:15;2.90;99.90
12957;DHT22;6543;48.836;10.092;2023-04-03T01:24:46;2.90;99.90
12957;DHT22;6543;48.836;10.092;2023-04-03T01:27:18;2.90;99.90
12957;DHT22;6543;48.836;10.092;2023-04-03T01:33:29;2.90;99.90
12957;DHT22;6543;48.836;10.092;2023-04-03T01:36:14;2.80;99.90
12957;DHT22;6543;48.836;10.092;2023-04-03T01:38:57;2.80;99.90
12957;DHT22;6543;48.836;10.092;2023-04-03T01:41:33;3.30;99.90
12957;DHT22;6543;48.836;10.092;2023-04-03T01:44:14;3.00;99.90
12957;DHT22;6543;48.836;10.092;2023-04-03T01:46:42;2.90;99.90
12957;DHT22;6543;48.836;10.092;2023-04-03T01:55:52;2.80;99.90
12957;DHT22;6543;48.836;10.092;2023-04-03T01:58:25;2.80;99.90
12957;DHT22;6543;48.836;10.092;2023-04-03T02:00:56;2.80;99.90
12957;DHT22;6543;48.836;10.092;2023-04-03T02:03:38;2.80;99.90
12957;DHT22;6543;48.836;10.092;2023-04-03T02:06:08;2.80;99.90
12957;DHT22;6543;48.836;10.092;2023-04-03T02:08:49;2.90;99.90
12957;DHT22;6543;48.836;10.092;2023-04-03T02:17:30;2.90;99.90
12957;DHT22;6543;48.836;10.092;2023-04-03T02:20:12;2.90;99.90
12957;DHT22;6543;48.836;10.092;2023-04-03T02:22:53;2.80;99.90
12957;DHT22;6543;48.836;10.092;2023-04-03T02:25:22;2.80;99.90
12957;DHT22;6543;48.836;10.092;2023-04-03T02:28:04;2.90;99.90
12957;DHT22;6543;48.836;10.092;2023-04-03T02:30:33;2.80;99.90
12957;DHT22;6543;48.836;10.092;2023-04-03T02:33:22;2.80;99.90
12957;DHT22;6543;48.836;10.092;2023-04-03T02:36:04;2.80;99.90
12957;DHT22;6543;48.836;10.092;2023-04-03T02:38:45;2.80;99.90
12957;DHT22;6543;48.836;10.092;2023-04-03T02:41:26;4.80;99.90
12957;DHT22;6543;48.836;10.092;2023-04-03T02:44:10;2.80;99.90
12957;DHT22;6543;48.836;10.092;2023-04-03T02:46:51;2.80;99.90
12957;DHT22;6543;48.836;10.092;2023-04-03T03:14:51;2.80;99.90
12957;DHT22;6543;48.836;10.092;2023-04-03T03:17:18;2.70;99.90
12957;DHT22;6543;48.836;10.092;2023-04-03T03:19:45;2.80;99.90
12957;DHT22;6543;48.836;10.092;2023-04-03T03:22:12;2.80;99.90
12957;DHT22;6543;48.836;10.092;2023-04-03T03:24:38;2.80;99.90
12957;DHT22;6543;48.836;10.092;2023-04-03T03:27:05;3.90;99.90
12957;DHT22;6543;48.836;10.092;2023-04-03T03:29:32;4.20;99.90
12957;DHT22;6543;48.836;10.092;2023-04-03T03:32:00;2.70;99.90
12957;DHT22;6543;48.836;10.092;2023-04-03T03:34:27;2.70;99.90
12957;DHT22;6543;48.836;10.092;2023-04-03T03:36:54;2.80;99.90
12957;DHT22;6543;48.836;10.092;2023-04-03T03:39:21;2.80;99.90
12957;DHT22;6543;48.836;10.092;2023-04-03T03:41:48;2.70;99.90
12957;DHT22;6543;48.836;10.092;2023-04-03T03:44:15;2.70;99.90
12957;DHT22;6543;48.836;10.092;2023-04-03T03:46:42;2.70;99.90
12957;DHT22;6543;48.836;10.092;2023-04-03T03:49:10;2.60;99.90
12957;DHT22;6543;48.836;10.092;2023-04-03T03:51:37;2.60;99.90
12957;DHT22;6543;48.836;10.092;2023-04-03T03:54:04;2.70;99.90
12957;DHT22;6543;48.836;10.092;2023-04-03T03:56:31;2.60;99.90
12957;DHT22;6543;48.836;10.092;2023-04-03T03:58:58;2.60;99.90
12957;DHT22;6543;48.836;10.092;2023-04-03T04:01:26;3.40;99.90
12957;DHT22;6543;48.836;10.092;2023-04-03T04:03:52;2.60;99.90
12957;DHT22;6543;48.836;10.092;2023-04-03T04:06:21;2.60;99.90
12957;DHT22;6543;48.836;10.092;2023-04-03T04:08:48;2.50;99.90
12957;DHT22;6543;48.836;10.092;2023-04-03T04:11:15;2.40;99.90
12957;DHT22;6543;48.836;10.092;2023-04-03T04:13:42;2.40;99.90
12957;DHT22;6543;48.836;10.092;2023-04-03T04:16:09;2.30;99.90
12957;DHT22;6543;48.836;10.092;2023-04-03T04:18:36;2.30;99.90
12957;DHT22;6543;48.836;10.092;2023-04-03T04:21:03;2.30;99.90
12957;DHT22;6543;48.836;10.092;2023-04-03T04:23:31;2.20;99.90
12957;DHT22;6543;48.836;10.092;2023-04-03T04:25:58;2.20;99.90
12957;DHT22;6543;48.836;10.092;2023-04-03T04:28:25;2.20;99.90
12957;DHT22;6543;48.836;10.092;2023-04-03T04:30:52;2.50;99.90
12957;DHT22;6543;48.836;10.092;2023-04-03T04:33:18;2.50;99.90
12957;DHT22;6543;48.836;10.092;2023-04-03T04:35:47;2.60;99.90
12957;DHT22;6543;48.836;10.092;2023-04-03T04:38:14;2.00;99.90
12957;DHT22;6543;48.836;10.092;2023-04-03T04:40:42;2.00;99.90
12957;DHT22;6543;48.836;10.092;2023-04-03T04:43:09;2.00;99.90
12957;DHT22;6543;48.836;10.092;2023-04-03T04:45:39;1.90;99.90
12957;DHT22;6543;48.836;10.092;2023-04-03T04:48:06;1.90;99.90
12957;DHT22;6543;48.836;10.092;2023-04-03T04:50:33;1.90;99.90
12957;DHT22;6543;48.836;10.092;2023-04-03T04:53:00;2.70;99.90
12957;DHT22;6543;48.836;10.092;2023-04-03T04:55:27;1.80;99.90
12957;DHT22;6543;48.836;10.092;2023-04-03T04:57:55;1.80;99.90
12957;DHT22;6543;48.836;10.092;2023-04-03T05:00:22;1.80;99.90
12957;DHT22;6543;48.836;10.092;2023-04-03T05:02:49;1.80;99.90
12957;DHT22;6543;48.836;10.092;2023-04-03T05:05:16;2.20;99.90
12957;DHT22;6543;48.836;10.092;2023-04-03T05:07:43;1.80;99.90
12957;DHT22;6543;48.836;10.092;2023-04-03T05:10:10;1.80;99.90
12957;DHT22;6543;48.836;10.092;2023-04-03T05:12:37;1.80;99.90
12957;DHT22;6543;48.836;10.092;2023-04-03T05:15:07;1.80;99.90
12957;DHT22;6543;48.836;10.092;2023-04-03T05:17:34;1.80;99.90
12957;DHT22;6543;48.836;10.092;2023-04-03T05:20:01;1.90;99.90
12957;DHT22;6543;48.836;10.092;2023-04-03T05:22:28;1.90;99.90
12957;DHT22;6543;48.836;10.092;2023-04-03T05:24:55;1.90;99.90
12957;DHT22;6543;48.836;10.092;2023-04-03T05:27:21;2.00;99.90
12957;DHT22;6543;48.836;10.092;2023-04-03T05:29:49;2.00;99.90
12957;DHT22;6543;48.836;10.092;2023-04-03T05:32:17;2.00;99.90
12957;DHT22;6543;48.836;10.092;2023-04-03T05:34:44;2.00;99.90
12957;DHT22;6543;48.836;10.092;2023-04-03T05:37:11;2.00;99.90
12957;DHT22;6543;48.836;10.092;2023-04-03T05:39:38;2.50;99.90
12957;DHT22;6543;48.836;10.092;2023-04-03T05:42:06;2.50;99.90
12957;DHT22;6543;48.836;10.092;2023-04-03T05:44:34;2.10;99.90
12957;DHT22;6543;48.836;10.092;2023-04-03T05:47:01;2.20;99.90
12957;DHT22;6543;48.836;10.092;2023-04-03T05:49:29;3.00;99.90
12957;DHT22;6543;48.836;10.092;2023-04-03T05:51:56;2.20;99.90
12957;DHT22;6543;48.836;10.092;2023-04-03T05:54:24;2.10;99.90
12957;DHT22;6543;48.836;10.092;2023-04-03T05:56:52;2.30;99.90
12957;DHT22;6543;48.836;10.092;2023-04-03T05:59:20;2.30;99.90
12957;DHT22;6543;48.836;10.092;2023-04-03T06:01:47;2.90;99.90
12957;DHT22;6543;48.836;10.092;2023-04-03T06:04:15;2.30;99.90
12957;DHT22;6543;48.836;10.092;2023-04-03T06:06:48;2.40;99.90
12957;DHT22;6543;48.836;10.092;2023-04-03T06:09:17;2.30;99.90
12957;DHT22;6543;48.836;10.092;2023-04-03T06:11:45;2.30;99.90
12957;DHT22;6543;48.836;10.092;2023-04-03T06:14:12;2.20;99.90
12957;DHT22;6543;48.836;10.092;2023-04-03T06:16:40;3.30;99.90
12957;DHT22;6543;48.836;10.092;2023-04-03T06:19:08;2.30;99.90
12957;DHT22;6543;48.836;10.092;2023-04-03T06:21:35;2.40;99.90
12957;DHT22;6543;48.836;10.092;2023-04-03T06:24:04;2.30;99.90
12957;DHT22;6543;48.836;10.092;2023-04-03T06:26:32;2.30;99.90
12957;DHT22;6543;48.836;10.092;2023-04-03T06:28:59;2.50;99.90
12957;DHT22;6543;48.836;10.092;2023-04-03T06:31:27;4.20;99.90
12957;DHT22;6543;48.836;10.092;2023-04-03T06:33:54;3.40;99.90
12957;DHT22;6543;48.836;10.092;2023-04-03T06:36:21;2.70;99.90
12957;DHT22;6543;48.836;10.092;2023-04-03T06:38:48;2.50;99.90
12957;DHT22;6543;48.836;10.092;2023-04-03T06:41:17;2.60;99.90
12957;DHT22;6543;48.836;10.092;2023-04-03T06:43:44;2.60;99.90
12957;DHT22;6543;48.836;10.092;2023-04-03T06:46:14;2.50;99.90
12957;DHT22;6543;48.836;10.092;2023-04-03T06:48:42;2.50;99.90
12957;DHT22;6543;48.836;10.092;2023-04-03T06:51:16;2.60;99.90
12957;DHT22;6543;48.836;10.092;2023-04-03T06:53:44;2.70;99.90
12957;DHT22;6543;48.836;10.092;2023-04-03T06:56:11;2.70;99.90
12957;DHT22;6543;48.836;10.092;2023-04-03T06:58:40;2.70;99.90
12957;DHT22;6543;48.836;10.092;2023-04-03T07:01:07;2.80;99.90
12957;DHT22;6543;48.836;10.092;2023-04-03T07:03:35;2.80;99.90
12957;DHT22;6543;48.836;10.092;2023-04-03T07:06:02;2.70;99.90
12957;DHT22;6543;48.836;10.092;2023-04-03T07:08:29;2.80;99.90
12957;DHT22;6543;48.836;10.092;2023-04-03T07:10:56;2.70;99.90
12957;DHT22;6543;48.836;10.092;2023-04-03T07:13:23;3.00;99.90
12957;DHT22;6543;48.836;10.092;2023-04-03T07:15:52;3.00;99.90
12957;DHT22;6543;48.836;10.092;2023-04-03T07:18:19;2.90;99.90
12957;DHT22;6543;48.836;10.092;2023-04-03T07:20:47;2.90;99.90
12957;DHT22;6543;48.836;10.092;2023-04-03T07:23:14;3.40;99.90
12957;DHT22;6543;48.836;10.092;2023-04-03T07:25:42;4.20;99.90
12957;DHT22;6543;48.836;10.092;2023-04-03T07:28:09;3.20;99.90
12957;DHT22;6543;48.836;10.092;2023-04-03T07:30:43;3.00;99.90
12957;DHT22;6543;48.836;10.092;2023-04-03T07:33:14;3.10;99.90
12957;DHT22;6543;48.836;10.092;2023-04-03T07:35:41;4.70;99.90
12957;DHT22;6543;48.836;10.092;2023-04-03T07:38:08;3.20;99.90
12957;DHT22;6543;48.836;10.092;2023-04-03T07:40:36;3.40;99.90
12957;DHT22;6543;48.836;10.092;2023-04-03T07:43:04;4.10;99.90
12957;DHT22;6543;48.836;10.092;2023-04-03T07:45:33;4.40;99.90
12957;DHT22;6543;48.836;10.092;2023-04-03T07:48:01;3.20;99.90
12957;DHT22;6543;48.836;10.092;2023-04-03T07:50:30;3.40;99.90
12957;DHT22;6543;48.836;10.092;2023-04-03T07:52:57;3.70;99.90
12957;DHT22;6543;48.836;10.092;2023-04-03T07:55:25;4.00;99.90
12957;DHT22;6543;48.836;10.092;2023-04-03T07:57:52;4.90;99.90
12957;DHT22;6543;48.836;10.092;2023-04-03T08:00:19;3.60;99.90
12957;DHT22;6543;48.836;10.092;2023-04-03T08:02:46;4.10;99.90
12957;DHT22;6543;48.836;10.092;2023-04-03T08:05:16;4.50;99.90
12957;DHT22;6543;48.836;10.092;2023-04-03T08:07:47;4.00;99.90
12957;DHT22;6543;48.836;10.092;2023-04-03T08:10:15;4.20;99.90
12957;DHT22;6543;48.836;10.092;2023-04-03T08:12:42;4.20;99.90
12957;DHT22;6543;48.836;10.092;2023-04-03T08:15:15;4.40;99.90
12957;DHT22;6543;48.836;10.092;2023-04-03T08:17:42;4.70;99.90
12957;DHT22;6543;48.836;10.092;2023-04-03T08:20:10;4.00;99.90
12957;DHT22;6543;48.836;10.092;2023-04-03T08:22:37;4.20;99.90
12957;DHT22;6543;48.836;10.092;2023-04-03T08:25:06;4.10;99.90
12957;DHT22;6543;48.836;10.092;2023-04-03T08:27:33;4.40;99.90
12957;DHT22;6543;48.836;10.092;2023-04-03T08:30:01;5.00;99.90
12957;DHT22;6543;48.836;10.092;2023-04-03T08:32:28;4.10;99.90
12957;DHT22;6543;48.836;10.092;2023-04-03T08:34:56;4.80;99.90
12957;DHT22;6543;48.836;10.092;2023-04-03T08:37:23;4.90;99.90
12957;DHT22;6543;48.836;10.092;2023-04-03T08:39:50;2.50;99.90
12957;DHT22;6543;48.836;10.092;2023-04-03T08:42:30;4.70;99.90
12957;DHT22;6543;48.836;10.092;2023-04-03T08:45:07;2.50;99.90
12957;DHT22;6543;48.836;10.092;2023-04-03T08:47:39;4.40;99.90
12957;DHT22;6543;48.836;10.092;2023-04-03T08:50:13;6.50;99.90
12957;DHT22;6543;48.836;10.092;2023-04-03T08:52:45;4.70;99.90
12957;DHT22;6543;48.836;10.092;2023-04-03T08:55:21;4.70;99.90
12957;DHT22;6543;48.836;10.092;2023-04-03T08:57:53;4.40;99.90
12957;DHT22;6543;48.836;10.092;2023-04-03T09:00:25;4.50;99.90
12957;DHT22;6543;48.836;10.092;2023-04-03T09:02:55;4.50;99.90
12957;DHT22;6543;48.836;10.092;2023-04-03T09:05:32;5.40;99.90
12957;DHT22;6543;48.836;10.092;2023-04-03T09:08:09;4.70;99.90
12957;DHT22;6543;48.836;10.092;2023-04-03T09:10:39;5.00;99.90
12957;DHT22;6543;48.836;10.092;2023-04-03T09:13:13;4.50;99.90
12957;DHT22;6543;48.836;10.092;2023-04-03T09:15:44;4.50;99.90
12957;DHT22;6543;48.836;10.092;2023-04-03T09:18:15;5.40;99.90
12957;DHT22;6543;48.836;10.092;2023-04-03T09:20:46;4.80;99.90
12957;DHT22;6543;48.836;10.092;2023-04-03T09:23:22;4.90;99.90
12957;DHT22;6543;48.836;10.092;2023-04-03T09:25:54;4.70;99.90
12957;DHT22;6543;48.836;10.092;2023-04-03T09:28:25;4.80;99.90
12957;DHT22;6543;48.836;10.092;2023-04-03T09:30:52;5.10;99.90
12957;DHT22;6543;48.836;10.092;2023-04-03T09:33:21;5.70;99.90
12957;DHT22;6543;48.836;10.092;2023-04-03T09:35:48;5.30;99.90
12957;DHT22;6543;48.836;10.092;2023-04-03T09:38:19;5.30;99.90
12957;DHT22;6543;48.836;10.092;2023-04-03T09:40:48;5.20;99.90
12957;DHT22;6543;48.836;10.092;2023-04-03T09:43:22;5.20;99.90
12957;DHT22;6543;48.836;10.092;2023-04-03T09:45:51;4.80;99.90
12957;DHT22;6543;48.836;10.092;2023-04-03T09:48:21;5.40;99.90
12957;DHT22;6543;48.836;10.092;2023-04-03T09:51:00;5.60;99.90
12957;DHT22;6543;48.836;10.092;2023-04-03T09:53:33;5.40;99.90
12957;DHT22;6543;48.836;10.092;2023-04-03T09:56:01;5.40;99.90
12957;DHT22;6543;48.836;10.092;2023-04-03T09:58:31;5.40;99.90
12957;DHT22;6543;48.836;10.092;2023-04-03T10:01:01;5.40;99.90
12957;DHT22;6543;48.836;10.092;2023-04-03T10:03:31;5.40;99.90
12957;DHT22;6543;48.836;10.092;2023-04-03T10:05:59;5.40;99.90
12957;DHT22;6543;48.836;10.092;2023-04-03T10:08:29;5.60;99.90
12957;DHT22;6543;48.836;10.092;2023-04-03T10:11:12;5.50;99.90
12957;DHT22;6543;48.836;10.092;2023-04-03T10:13:56;6.00;99.90
12957;DHT22;6543;48.836;10.092;2023-04-03T10:16:31;6.50;99.90
12957;DHT22;6543;48.836;10.092;2023-04-03T10:19:19;5.50;99.90
12957;DHT22;6543;48.836;10.092;2023-04-03T10:21:55;5.40;99.90
12957;DHT22;6543;48.836;10.092;2023-04-03T10:24:27;6.30;99.90
12957;DHT22;6543;48.836;10.092;2023-04-03T10:26:58;5.60;99.90
12957;DHT22;6543;48.836;10.092;2023-04-03T10:29:38;5.40;99.90
12957;DHT22;6543;48.836;10.092;2023-04-03T10:32:24;5.50;99.90
12957;DHT22;6543;48.836;10.092;2023-04-03T10:35:01;5.30;99.90
12957;DHT22;6543;48.836;10.092;2023-04-03T10:37:39;5.00;99.90
12957;DHT22;6543;48.836;10.092;2023-04-03T10:40:18;4.90;99.90
12957;DHT22;6543;48.836;10.092;2023-04-03T10:42:52;4.80;99.90
12957;DHT22;6543;48.836;10.092;2023-04-03T10:45:25;4.80;99.90
12957;DHT22;6543;48.836;10.092;2023-04-03T10:48:03;5.20;99.90
12957;DHT22;6543;48.836;10.092;2023-04-03T10:53:10;5.10;99.90
12957;DHT22;6543;48.836;10.092;2023-04-03T10:55:43;5.30;99.90
12957;DHT22;6543;48.836;10.092;2023-04-03T10:58:19;5.30;99.90
12957;DHT22;6543;48.836;10.092;2023-04-03T11:00:49;5.20;99.90
12957;DHT22;6543;48.836;10.092;2023-04-03T11:03:27;5.70;99.90
12957;DHT22;6543;48.836;10.092;2023-04-03T11:05:56;5.30;99.90
12957;DHT22;6543;48.836;10.092;2023-04-03T11:08:29;5.50;99.90
12957;DHT22;6543;48.836;10.092;2023-04-03T11:11:08;5.30;99.90
12957;DHT22;6543;48.836;10.092;2023-04-03T11:16:25;5.40;99.90
12957;DHT22;6543;48.836;10.092;2023-04-03T11:19:08;5.70;99.90
12957;DHT22;6543;48.836;10.092;2023-04-03T11:21:44;5.60;99.90
12957;DHT22;6543;48.836;10.092;2023-04-03T11:24:17;5.80;99.90
12957;DHT22;6543;48.836;10.092;2023-04-03T11:26:49;5.30;99.90
12957;DHT22;6543;48.836;10.092;2023-04-03T11:29:20;5.00;99.90
12957;DHT22;6543;48.836;10.092;2023-04-03T11:34:34;5.10;99.90
12957;DHT22;6543;48.836;10.092;2023-04-03T11:37:11;6.60;99.90
12957;DHT22;6543;48.836;10.092;2023-04-03T11:39:40;4.60;99.90
12957;DHT22;6543;48.836;10.092;2023-04-03T11:42:15;5.20;99.90
12957;DHT22;6543;48.836;10.092;2023-04-03T11:44:45;5.20;99.90
12957;DHT22;6543;48.836;10.092;2023-04-03T11:47:44;5.40;99.90
12957;DHT22;6543;48.836;10.092;2023-04-03T11:50:31;5.60;99.90
12957;DHT22;6543;48.836;10.092;2023-04-03T11:53:29;5.70;99.90
12957;DHT22;6543;48.836;10.092;2023-04-03T11:55:59;5.10;99.90
12957;DHT22;6543;48.836;10.092;2023-04-03T11:58:28;5.00;99.90
12957;DHT22;6543;48.836;10.092;2023-04-03T12:01:04;5.50;99.90
12957;DHT22;6543;48.836;10.092;2023-04-03T12:10:12;5.30;99.90
12957;DHT22;6543;48.836;10.092;2023-04-03T12:12:42;6.80;99.90
12957;DHT22;6543;48.836;10.092;2023-04-03T12:15:26;5.40;99.90
12957;DHT22;6543;48.836;10.092;2023-04-03T12:17:53;5.70;99.90
12957;DHT22;6543;48.836;10.092;2023-04-03T12:20:55;6.10;99.90
12957;DHT22;6543;48.836;10.092;2023-04-03T12:23:31;6.30;99.90
12957;DHT22;6543;48.836;10.092;2023-04-03T12:26:19;6.10;99.90
12957;DHT22;6543;48.836;10.092;2023-04-03T12:28:48;5.80;99.90
12957;DHT22;6543;48.836;10.092;2023-04-03T12:31:19;8.10;99.90
12957;DHT22;6543;48.836;10.092;2023-04-03T12:34:05;6.10;99.90
12957;DHT22;6543;48.836;10.092;2023-04-03T12:36:43;6.30;99.90
12957;DHT22;6543;48.836;10.092;2023-04-03T12:39:40;5.90;99.90
12957;DHT22;6543;48.836;10.092;2023-04-03T12:42:18;6.20;99.90
12957;DHT22;6543;48.836;10.092;2023-04-03T12:44:54;5.80;99.90
12957;DHT22;6543;48.836;10.092;2023-04-03T12:47:27;5.30;99.90
12957;DHT22;6543;48.836;10.092;2023-04-03T12:49:57;7.30;99.90
12957;DHT22;6543;48.836;10.092;2023-04-03T12:52:32;5.90;99.90
12957;DHT22;6543;48.836;10.092;2023-04-03T12:55:01;7.60;99.90
12957;DHT22;6543;48.836;10.092;2023-04-03T12:57:31;7.10;99.90
12957;DHT22;6543;48.836;10.092;2023-04-03T12:59:59;6.70;99.90
12957;DHT22;6543;48.836;10.092;2023-04-03T13:02:28;7.90;99.90
12957;DHT22;6543;48.836;10.092;2023-04-03T13:04:57;5.30;99.90
12957;DHT22;6543;48.836;10.092;2023-04-03T13:07:29;6.30;99.90
12957;DHT22;6543;48.836;10.092;2023-04-03T13:10:09;6.70;99.90
12957;DHT22;6543;48.836;10.092;2023-04-03T13:12:48;5.40;99.90
12957;DHT22;6543;48.836;10.092;2023-04-03T13:15:17;5.50;99.90
12957;DHT22;6543;48.836;10.092;2023-04-03T13:17:45;5.90;99.90
12957;DHT22;6543;48.836;10.092;2023-04-03T13:20:17;7.00;99.90
12957;DHT22;6543;48.836;10.092;2023-04-03T13:22:56;6.00;99.90
12957;DHT22;6543;48.836;10.092;2023-04-03T13:27:53;6.00;99.90
12957;DHT22;6543;48.836;10.092;2023-04-03T13:30:25;6.00;99.90
12957;DHT22;6543;48.836;10.092;2023-04-03T13:32:54;5.90;99.90
12957;DHT22;6543;48.836;10.092;2023-04-03T13:35:32;6.20;99.90
12957;DHT22;6543;48.836;10.092;2023-04-03T13:38:02;5.90;99.90
12957;DHT22;6543;48.836;10.092;2023-04-03T13:40:29;5.70;99.90
12957;DHT22;6543;48.836;10.092;2023-04-03T13:43:05;6.30;99.90
12957;DHT22;6543;48.836;10.092;2023-04-03T13:45:34;7.50;99.90
12957;DHT22;6543;48.836;10.092;2023-04-03T13:48:10;5.70;99.90
12957;DHT22;6543;48.836;10.092;2023-04-03T13:50:56;6.10;99.90
12957;DHT22;6543;48.836;10.092;2023-04-03T13:53:24;6.20;99.90
12957;DHT22;6543;48.836;10.092;2023-04-03T13:55:59;7.50;99.90
12957;DHT22;6543;48.836;10.092;2023-04-03T13:58:29;5.70;99.90
12957;DHT22;6543;48.836;10.092;2023-04-03T14:01:01;6.10;99.90
12957;DHT22;6543;48.836;10.092;2023-04-03T14:03:30;6.10;99.90
12957;DHT22;6543;48.836;10.092;2023-04-03T14:05:59;7.10;99.90
12957;DHT22;6543;48.836;10.092;2023-04-03T14:08:27;6.20;99.90
12957;DHT22;6543;48.836;10.092;2023-04-03T14:10:54;6.40;99.90
12957;DHT22;6543;48.836;10.092;2023-04-03T14:13:21;6.40;99.90
12957;DHT22;6543;48.836;10.092;2023-04-03T14:15:49;6.40;99.90
12957;DHT22;6543;48.836;10.092;2023-04-03T14:18:19;6.20;99.90
12957;DHT22;6543;48.836;10.092;2023-04-03T14:20:47;5.50;99.90
12957;DHT22;6543;48.836;10.092;2023-04-03T14:23:14;5.70;99.90
12957;DHT22;6543;48.836;10.092;2023-04-03T14:25:41;5.70;99.90
12957;DHT22;6543;48.836;10.092;2023-04-03T14:28:15;5.90;99.90
12957;DHT22;6543;48.836;10.092;2023-04-03T14:30:42;6.10;99.90
12957;DHT22;6543;48.836;10.092;2023-04-03T14:33:14;6.40;99.90
12957;DHT22;6543;48.836;10.092;2023-04-03T14:35:41;6.40;99.90
12957;DHT22;6543;48.836;10.092;2023-04-03T14:38:23;6.10;99.90
12957;DHT22;6543;48.836;10.092;2023-04-03T14:40:50;6.10;99.90
12957;DHT22;6543;48.836;10.092;2023-04-03T14:43:18;6.30;99.90
12957;DHT22;6543;48.836;10.092;2023-04-03T14:45:46;6.30;99.90
12957;DHT22;6543;48.836;10.092;2023-04-03T14:48:19;6.40;99.90
12957;DHT22;6543;48.836;10.092;2023-04-03T14:50:47;6.30;99.90
12957;DHT22;6543;48.836;10.092;2023-04-03T14:53:15;6.50;99.90
12957;DHT22;6543;48.836;10.092;2023-04-03T14:55:45;6.80;99.90
12957;DHT22;6543;48.836;10.092;2023-04-03T14:58:16;7.20;99.90
12957;DHT22;6543;48.836;10.092;2023-04-03T15:00:44;6.30;99.90
12957;DHT22;6543;48.836;10.092;2023-04-03T15:03:21;7.60;99.90
12957;DHT22;6543;48.836;10.092;2023-04-03T15:05:49;6.40;99.90
12957;DHT22;6543;48.836;10.092;2023-04-03T15:08:19;5.80;99.90
12957;DHT22;6543;48.836;10.092;2023-04-03T15:10:46;7.80;99.90
12957;DHT22;6543;48.836;10.092;2023-04-03T15:13:14;7.50;99.90
12957;DHT22;6543;48.836;10.092;2023-04-03T15:15:42;6.20;99.90
12957;DHT22;6543;48.836;10.092;2023-04-03T15:18:18;6.00;99.90
12957;DHT22;6543;48.836;10.092;2023-04-03T15:20:46;6.00;99.90
12957;DHT22;6543;48.836;10.092;2023-04-03T15:23:15;7.50;99.90
12957;DHT22;6543;48.836;10.092;2023-04-03T15:25:42;6.90;99.90
12957;DHT22;6543;48.836;10.092;2023-04-03T15:28:17;6.70;99.90
12957;DHT22;6543;48.836;10.092;2023-04-03T15:30:45;7.10;99.90
12957;DHT22;6543;48.836;10.092;2023-04-03T15:33:12;6.30;99.90
12957;DHT22;6543;48.836;10.092;2023-04-03T15:35:42;5.40;99.90
12957;DHT22;6543;48.836;10.092;2023-04-03T15:38:10;6.40;99.90
12957;DHT22;6543;48.836;10.092;2023-04-03T15:40:41;7.10;99.90
12957;DHT22;6543;48.836;10.092;2023-04-03T15:43:11;5.90;99.90
12957;DHT22;6543;48.836;10.092;2023-04-03T15:45:49;5.90;99.90
12957;DHT22;6543;48.836;10.092;2023-04-03T15:48:21;5.80;99.90
12957;DHT22;6543;48.836;10.092;2023-04-03T15:50:53;6.20;99.90
12957;DHT22;6543;48.836;10.092;2023-04-03T15:53:23;5.80;99.90
12957;DHT22;6543;48.836;10.092;2023-04-03T15:56:01;5.80;99.90
12957;DHT22;6543;48.836;10.092;2023-04-03T15:58:32;4.70;99.90
12957;DHT22;6543;48.836;10.092;2023-04-03T16:00:59;5.60;99.90
12957;DHT22;6543;48.836;10.092;2023-04-03T16:03:31;5.60;99.90
12957;DHT22;6543;48.836;10.092;2023-04-03T16:06:06;5.70;99.90
12957;DHT22;6543;48.836;10.092;2023-04-03T16:08:46;6.70;99.90
12957;DHT22;6543;48.836;10.092;2023-04-03T16:11:14;4.80;99.90
12957;DHT22;6543;48.836;10.092;2023-04-03T16:13:45;6.30;99.90
12957;DHT22;6543;48.836;10.092;2023-04-03T16:16:17;5.90;99.90
12957;DHT22;6543;48.836;10.092;2023-04-03T16:18:44;5.90;99.90
12957;DHT22;6543;48.836;10.092;2023-04-03T16:21:15;6.10;99.90
12957;DHT22;6543;48.836;10.092;2023-04-03T16:23:43;6.20;99.90
12957;DHT22;6543;48.836;10.092;2023-04-03T16:26:11;6.10;99.90
12957;DHT22;6543;48.836;10.092;2023-04-03T16:28:44;6.10;99.90
12957;DHT22;6543;48.836;10.092;2023-04-03T16:31:14;5.90;99.90
12957;DHT22;6543;48.836;10.092;2023-04-03T16:33:47;5.80;99.90
12957;DHT22;6543;48.836;10.092;2023-04-03T16:36:21;4.50;99.90
12957;DHT22;6543;48.836;10.092;2023-04-03T16:38:48;5.50;99.90
12957;DHT22;6543;48.836;10.092;2023-04-03T16:41:18;3.90;99.90
12957;DHT22;6543;48.836;10.092;2023-04-03T16:43:46;4.40;99.90
12957;DHT22;6543;48.836;10.092;2023-04-03T16:46:15;6.80;99.90
12957;DHT22;6543;48.836;10.092;2023-04-03T16:48:42;6.00;99.90
12957;DHT22;6543;48.836;10.092;2023-04-03T16:51:09;5.10;99.90
12957;DHT22;6543;48.836;10.092;2023-04-03T16:53:39;5.30;99.90
12957;DHT22;6543;48.836;10.092;2023-04-03T16:56:07;5.40;99.90
12957;DHT22;6543;48.836;10.092;2023-04-03T16:58:34;7.50;99.90
12957;DHT22;6543;48.836;10.092;2023-04-03T17:01:09;7.20;99.90
12957;DHT22;6543;48.836;10.092;2023-04-03T17:03:36;6.90;99.90
12957;DHT22;6543;48.836;10.092;2023-04-03T17:06:03;6.20;99.90
12957;DHT22;6543;48.836;10.092;2023-04-03T17:08:30;5.40;99.90